Ivano-Frankivs'K, Ukraine
Current Conditions -  °F | °C
As of 8:00 AM on Saturday 25 Oct 2014 (Local Time) from UKLI Reporting Station
Overcast Overcast  
Wind Chill: 15°   Ceiling: 1300
Heat Index: 27°   Visibility: 6mi
Dew Point: 25°   Wind: 13mph
Humidity: 93%   Direction: 110°ESE
Pressure: 30.39"   Gusts: NA
Location:  48.97°N, 24.4°E
Report Text: UKLI 250500Z 11006MPS 9999 OVC013 M03/M04 Q1029 10090070 NOSIG
Loading
Personal Weather Stations






























Interactive Weather Map
Tropical Storm Tracking
New forecast layout! Learn more

10-Day Weather Forecast

Advertisements
Track Severe Weather on mobile